createdAt,value
2019-05-18T00:01:50.167Z,49.03
2019-05-18T00:04:18.209Z,49.06
2019-05-18T00:06:46.296Z,49.07
2019-05-18T00:09:14.301Z,48.94
2019-05-18T00:11:42.310Z,49.02
2019-05-18T00:14:10.435Z,48.97
2019-05-18T00:16:38.571Z,49.00
2019-05-18T00:19:06.597Z,49.00
2019-05-18T00:21:34.644Z,49.04
2019-05-18T00:24:21.364Z,49.07
2019-05-18T00:26:49.418Z,49.14
2019-05-18T00:29:17.454Z,49.15
2019-05-18T00:31:45.478Z,49.12
2019-05-18T00:34:13.496Z,49.08
2019-05-18T00:36:41.686Z,49.08
2019-05-18T00:39:09.687Z,49.12
2019-05-18T00:41:37.731Z,49.12
2019-05-18T00:44:05.763Z,49.07
2019-05-18T00:46:33.806Z,49.09
2019-05-18T00:49:01.855Z,49.10
2019-05-18T00:51:29.846Z,49.17
2019-05-18T00:53:57.876Z,49.20
2019-05-18T00:56:26.434Z,49.20
2019-05-18T00:58:54.447Z,49.12
2019-05-18T01:01:22.477Z,49.25
2019-05-18T01:03:50.528Z,49.21
2019-05-18T01:06:18.555Z,49.25
2019-05-18T01:08:46.575Z,49.29
2019-05-18T01:11:14.715Z,49.21
2019-05-18T01:13:42.736Z,49.21
2019-05-18T01:16:10.728Z,49.16
2019-05-18T01:18:38.846Z,49.23
2019-05-18T01:21:06.838Z,49.15
2019-05-18T01:23:34.868Z,49.17
2019-05-18T01:26:03.233Z,49.16
2019-05-18T01:28:31.247Z,49.12
2019-05-18T01:30:59.297Z,49.23
2019-05-18T01:33:27.322Z,49.23
2019-05-18T01:35:55.324Z,49.24
2019-05-18T01:38:23.334Z,49.25
2019-05-18T01:40:51.371Z,49.29
2019-05-18T01:43:19.781Z,49.23
2019-05-18T01:45:47.819Z,49.20
2019-05-18T01:48:15.863Z,49.16
2019-05-18T01:50:43.912Z,49.15
2019-05-18T01:53:11.950Z,49.09
2019-05-18T01:55:40.163Z,49.06
2019-05-18T01:58:08.233Z,49.12
2019-05-18T02:00:36.235Z,49.15
2019-05-18T02:03:04.251Z,49.18
2019-05-18T02:05:32.283Z,49.27
2019-05-18T02:08:00.278Z,49.22
2019-05-18T02:10:28.393Z,49.22
2019-05-18T02:12:56.470Z,49.24
2019-05-18T02:15:24.475Z,49.26
2019-05-18T02:17:52.522Z,49.25
2019-05-18T02:20:20.572Z,49.25
2019-05-18T02:22:48.584Z,49.28
2019-05-18T02:25:16.669Z,49.27
2019-05-18T02:27:44.680Z,49.24
2019-05-18T02:30:16.977Z,49.24
2019-05-18T02:32:42.443Z,49.32
2019-05-18T02:35:10.496Z,49.35
2019-05-18T02:37:38.597Z,49.41
2019-05-18T02:40:06.630Z,49.37
2019-05-18T02:42:34.620Z,49.30
2019-05-18T02:45:02.761Z,49.34
2019-05-18T02:47:30.880Z,49.31
2019-05-18T02:49:58.916Z,49.35
2019-05-18T02:52:27.071Z,49.33
2019-05-18T02:54:55.201Z,49.37
2019-05-18T02:57:23.233Z,49.26
2019-05-18T02:59:51.279Z,49.36
2019-05-18T03:02:19.539Z,49.36
2019-05-18T03:04:47.627Z,49.41
2019-05-18T03:07:15.727Z,49.36
2019-05-18T03:09:43.784Z,49.20
2019-05-18T03:12:12.091Z,49.28
2019-05-18T03:14:40.107Z,49.28
2019-05-18T03:17:08.097Z,49.28
2019-05-18T03:19:36.147Z,49.24
2019-05-18T03:22:04.172Z,49.17
2019-05-18T03:24:32.193Z,49.21
2019-05-18T03:27:00.393Z,49.21
2019-05-18T03:29:28.425Z,49.26
2019-05-18T03:31:56.462Z,49.21
2019-05-18T03:34:24.462Z,49.12
2019-05-18T03:36:53.163Z,49.17
2019-05-18T03:39:21.194Z,49.13
2019-05-18T03:41:49.209Z,49.13
2019-05-18T03:44:17.427Z,49.09
2019-05-18T03:46:45.466Z,49.13
2019-05-18T03:49:25.960Z,49.11
2019-05-18T03:51:43.244Z,49.23
2019-05-18T03:54:11.308Z,49.18
2019-05-18T03:56:39.330Z,49.24
2019-05-18T03:59:07.366Z,49.17
2019-05-18T04:01:35.357Z,49.19
2019-05-18T04:04:03.353Z,49.15
2019-05-18T04:06:31.394Z,49.13
2019-05-18T04:08:59.426Z,49.17
2019-05-18T04:11:27.477Z,49.12
2019-05-18T04:13:55.517Z,49.13
2019-05-18T04:16:23.515Z,49.21
2019-05-18T04:18:51.562Z,49.16
2019-05-18T04:21:19.946Z,49.10
2019-05-18T04:23:47.970Z,49.16
2019-05-18T04:26:16.041Z,49.17
2019-05-18T04:28:44.109Z,49.14
2019-05-18T04:31:12.146Z,49.19
2019-05-18T04:33:40.234Z,49.10
2019-05-18T04:36:08.214Z,49.14
2019-05-18T04:38:36.227Z,49.10
2019-05-18T04:41:04.385Z,49.14
2019-05-18T04:43:32.369Z,49.25
2019-05-18T04:46:19.123Z,49.20
2019-05-18T04:48:47.146Z,49.24
2019-05-18T04:51:15.265Z,49.27
2019-05-18T04:53:43.268Z,49.32
2019-05-18T04:56:11.301Z,49.36
2019-05-18T04:58:39.293Z,49.31
2019-05-18T05:01:07.310Z,49.36
2019-05-18T05:03:35.314Z,49.34
2019-05-18T05:06:03.366Z,49.32
2019-05-18T05:08:31.344Z,49.33
2019-05-18T05:10:59.352Z,49.36
2019-05-18T05:13:27.406Z,49.43
2019-05-18T05:15:55.408Z,49.48
2019-05-18T05:18:23.434Z,49.44
2019-05-18T05:20:51.506Z,49.46
2019-05-18T05:23:19.534Z,49.52
2019-05-18T05:25:47.556Z,49.56
2019-05-18T05:28:15.605Z,49.52
2019-05-18T05:30:43.590Z,49.59
2019-05-18T05:33:11.596Z,49.63
2019-05-18T05:35:39.697Z,49.63
2019-05-18T05:38:07.715Z,49.64
2019-05-18T05:40:35.711Z,49.66
2019-05-18T05:43:03.953Z,49.73
2019-05-18T05:45:31.957Z,49.78
2019-05-18T05:48:00.098Z,49.75
2019-05-18T05:50:36.224Z,49.79
2019-05-18T05:52:58.104Z,49.79
2019-05-18T05:55:26.138Z,49.85
2019-05-18T05:57:54.170Z,49.83
2019-05-18T06:00:22.227Z,49.96
2019-05-18T06:02:50.217Z,50.01
2019-05-18T06:05:18.248Z,50.00
2019-05-18T06:07:46.252Z,50.08
2019-05-18T06:10:14.286Z,50.14
2019-05-18T06:12:42.259Z,50.10
2019-05-18T06:15:10.312Z,50.02
2019-05-18T06:17:38.358Z,50.02
2019-05-18T06:20:06.353Z,50.09
2019-05-18T06:22:34.366Z,50.10
2019-05-18T06:25:03.024Z,50.28
2019-05-18T06:27:31.636Z,50.23
2019-05-18T06:29:59.619Z,50.17
2019-05-18T06:32:27.666Z,50.21
2019-05-18T06:34:55.662Z,50.21
2019-05-18T06:37:23.718Z,50.38
2019-05-18T06:39:51.765Z,50.37
2019-05-18T06:42:19.957Z,50.28
2019-05-18T06:44:47.937Z,50.19
2019-05-18T06:47:15.987Z,50.23
2019-05-18T06:49:44.004Z,50.31
2019-05-18T06:52:11.989Z,50.62
2019-05-18T06:54:40.139Z,50.56
2019-05-18T06:57:08.194Z,50.23
2019-05-18T06:59:36.186Z,50.39
2019-05-18T07:02:04.252Z,50.42
2019-05-18T07:04:32.264Z,51.56
2019-05-18T07:07:00.276Z,51.21
2019-05-18T07:09:28.332Z,51.72
2019-05-18T07:11:56.472Z,51.61
2019-05-18T07:14:26.004Z,51.48
2019-05-18T07:16:54.337Z,51.37
2019-05-18T07:19:22.386Z,51.20
2019-05-18T07:21:50.476Z,51.06
2019-05-18T07:24:18.631Z,50.94
2019-05-18T07:26:46.648Z,50.80
2019-05-18T07:29:14.700Z,50.81
2019-05-18T07:31:42.745Z,50.60
2019-05-18T07:34:10.797Z,50.53
2019-05-18T07:36:38.868Z,50.52
2019-05-18T07:39:06.951Z,50.56
2019-05-18T07:41:46.418Z,50.69
2019-05-18T07:44:04.809Z,50.75
2019-05-18T07:46:32.900Z,50.74
2019-05-18T07:49:01.117Z,50.77
2019-05-18T07:51:36.531Z,50.67
2019-05-18T07:53:58.899Z,50.56
2019-05-18T07:56:27.157Z,51.48
2019-05-18T07:59:13.920Z,51.65
2019-05-18T08:01:41.940Z,51.47
2019-05-18T08:04:09.996Z,51.64
2019-05-18T08:06:38.134Z,51.83
2019-05-18T08:09:06.281Z,51.53
2019-05-18T08:11:34.339Z,51.49
2019-05-18T08:14:02.429Z,51.49
2019-05-18T08:16:30.623Z,51.26
2019-05-18T08:18:58.690Z,51.31
2019-05-18T08:21:26.801Z,51.37
2019-05-18T08:23:54.890Z,51.36
2019-05-18T08:26:23.015Z,51.20
2019-05-18T08:28:51.098Z,51.13
2019-05-18T08:31:19.172Z,50.67
2019-05-18T08:33:48.266Z,49.81
2019-05-18T08:36:16.292Z,49.77
2019-05-18T08:38:44.339Z,49.67
2019-05-18T08:41:12.439Z,49.57
2019-05-18T08:43:40.517Z,49.49
2019-05-18T08:46:08.537Z,49.53
2019-05-18T08:48:36.676Z,49.67
2019-05-18T08:51:05.846Z,49.49
2019-05-18T08:53:34.351Z,49.43
2019-05-18T08:56:02.425Z,49.60
2019-05-18T08:58:30.481Z,49.50
2019-05-18T09:00:58.529Z,49.48
2019-05-18T09:03:26.618Z,49.37
2019-05-18T09:05:54.688Z,49.49
2019-05-18T09:08:22.697Z,49.38
2019-05-18T09:10:50.713Z,49.29
2019-05-18T09:13:18.856Z,49.26
2019-05-18T09:15:46.881Z,49.09
2019-05-18T09:18:14.892Z,49.02
2019-05-18T09:20:43.309Z,48.95
2019-05-18T09:23:11.400Z,49.16
2019-05-18T09:25:39.436Z,49.10
2019-05-18T09:28:07.517Z,48.96
2019-05-18T09:30:35.636Z,48.96
2019-05-18T09:33:03.772Z,48.91
2019-05-18T09:35:31.829Z,48.87
2019-05-18T09:38:00.178Z,48.88
2019-05-18T09:40:28.250Z,48.72
2019-05-18T09:42:56.265Z,48.54
2019-05-18T09:45:24.279Z,48.59
2019-05-18T09:47:52.353Z,48.68
2019-05-18T09:50:20.372Z,48.65
2019-05-18T09:52:48.390Z,48.64
2019-05-18T09:55:16.462Z,48.66
2019-05-18T09:57:44.511Z,48.59
2019-05-18T10:00:12.916Z,48.41
2019-05-18T10:02:41.007Z,48.62
2019-05-18T10:05:09.134Z,48.57
2019-05-18T10:07:37.249Z,48.51
2019-05-18T10:10:05.313Z,48.54
2019-05-18T10:12:33.400Z,48.49
2019-05-18T10:15:02.190Z,48.47
2019-05-18T10:17:31.358Z,48.50
2019-05-18T10:19:59.516Z,48.51
2019-05-18T10:22:27.563Z,48.44
2019-05-18T10:24:55.633Z,48.32
2019-05-18T10:27:23.891Z,48.31
2019-05-18T10:29:52.142Z,48.55
2019-05-18T10:32:23.040Z,48.88
2019-05-18T10:34:51.113Z,48.96
2019-05-18T10:37:19.126Z,48.98
2019-05-18T10:39:47.165Z,49.10
2019-05-18T10:42:15.483Z,48.96
2019-05-18T10:44:43.523Z,48.53
2019-05-18T10:47:11.631Z,48.68
2019-05-18T10:49:39.700Z,48.61
2019-05-18T10:52:07.949Z,48.68
2019-05-18T10:54:35.989Z,48.73
2019-05-18T10:57:04.007Z,48.70
2019-05-18T10:59:32.139Z,48.67
2019-05-18T11:02:01.097Z,48.63
2019-05-18T11:04:29.184Z,48.64
2019-05-18T11:06:57.176Z,48.61
2019-05-18T11:09:25.260Z,48.53
2019-05-18T11:11:53.322Z,48.50
2019-05-18T11:14:21.349Z,48.45
2019-05-18T11:16:49.445Z,48.42
2019-05-18T11:19:17.708Z,48.40
2019-05-18T11:21:45.744Z,48.41
2019-05-18T11:24:13.894Z,48.38
2019-05-18T11:26:41.988Z,48.39
2019-05-18T11:29:09.974Z,48.37
2019-05-18T11:31:38.145Z,48.33
2019-05-18T11:34:06.196Z,48.34
2019-05-18T11:36:34.818Z,48.37
2019-05-18T11:39:03.114Z,48.36
2019-05-18T11:41:31.342Z,48.34
2019-05-18T11:43:59.496Z,48.29
2019-05-18T11:46:27.513Z,48.28
2019-05-18T11:48:56.051Z,48.25
2019-05-18T11:51:24.115Z,48.25
2019-05-18T11:53:58.304Z,48.26
2019-05-18T11:56:22.027Z,48.26
2019-05-18T11:58:50.029Z,48.27
2019-05-18T12:01:18.207Z,48.26
2019-05-18T12:03:46.331Z,48.24
2019-05-18T12:06:14.700Z,48.25
2019-05-18T12:08:43.518Z,48.22
2019-05-18T12:11:11.625Z,48.18
2019-05-18T12:13:39.631Z,48.10
2019-05-18T12:16:07.660Z,48.03
2019-05-18T12:18:35.802Z,47.95
2019-05-18T12:21:03.905Z,47.83
2019-05-18T12:23:31.934Z,47.79
2019-05-18T12:25:59.992Z,47.76
2019-05-18T12:28:28.141Z,47.76
2019-05-18T12:30:56.177Z,47.77
2019-05-18T12:33:24.322Z,47.81
2019-05-18T12:35:52.328Z,47.83
2019-05-18T12:38:20.350Z,47.86
2019-05-18T12:40:48.503Z,47.87
2019-05-18T12:43:16.534Z,47.90
2019-05-18T12:45:44.591Z,47.92
2019-05-18T12:48:12.702Z,47.94
2019-05-18T12:50:40.704Z,47.94
2019-05-18T12:53:08.787Z,47.89
2019-05-18T12:55:36.855Z,47.87
2019-05-18T12:58:04.901Z,47.83
2019-05-18T13:00:32.926Z,47.81
2019-05-18T13:03:01.179Z,47.80
2019-05-18T13:05:29.277Z,47.76
2019-05-18T13:07:57.630Z,48.04
2019-05-18T13:10:25.667Z,48.17
2019-05-18T13:12:53.676Z,48.32
2019-05-18T13:15:21.715Z,48.38
2019-05-18T13:17:49.811Z,48.43
2019-05-18T13:20:17.840Z,48.51
2019-05-18T13:22:45.906Z,48.54
2019-05-18T13:25:13.995Z,48.50
2019-05-18T13:27:42.084Z,48.47
2019-05-18T13:30:10.151Z,48.47
2019-05-18T13:32:38.269Z,48.42
2019-05-18T13:35:06.337Z,48.33
2019-05-18T13:37:34.707Z,48.26
2019-05-18T13:40:02.897Z,48.15
2019-05-18T13:42:30.983Z,48.06
2019-05-18T13:44:58.996Z,47.96
2019-05-18T13:47:27.010Z,47.93
2019-05-18T13:49:55.084Z,47.86
2019-05-18T13:52:23.124Z,47.81
2019-05-18T13:55:03.089Z,47.78
2019-05-18T13:57:20.960Z,47.70
2019-05-18T13:59:49.077Z,47.64
2019-05-18T14:02:17.457Z,47.61
2019-05-18T14:04:45.508Z,47.55
2019-05-18T14:07:13.510Z,47.52
2019-05-18T14:09:41.533Z,47.46
2019-05-18T14:12:09.540Z,47.44
2019-05-18T14:14:37.686Z,47.38
2019-05-18T14:17:05.709Z,47.36
2019-05-18T14:19:33.932Z,47.31
2019-05-18T14:22:02.098Z,47.27
2019-05-18T14:24:30.128Z,47.22
2019-05-18T14:26:58.186Z,47.19
2019-05-18T14:29:26.199Z,47.17
2019-05-18T14:31:54.851Z,47.13
2019-05-18T14:34:23.246Z,47.09
2019-05-18T14:36:51.376Z,47.03
2019-05-18T14:39:19.483Z,47.00
2019-05-18T14:41:47.509Z,46.99
2019-05-18T14:44:15.579Z,46.97
2019-05-18T14:46:43.649Z,46.95
2019-05-18T14:49:11.704Z,46.88
2019-05-18T14:51:39.787Z,46.86
2019-05-18T14:54:07.878Z,46.81
2019-05-18T14:56:35.985Z,46.85
2019-05-18T14:59:04.014Z,46.78
2019-05-18T15:01:32.064Z,46.77
2019-05-18T15:04:00.161Z,46.75
2019-05-18T15:06:28.166Z,46.73
2019-05-18T15:08:56.144Z,46.69
2019-05-18T15:11:24.759Z,46.67
2019-05-18T15:13:52.834Z,46.65
2019-05-18T15:16:21.102Z,46.64
2019-05-18T15:18:50.974Z,46.61
2019-05-18T15:21:19.182Z,46.58
2019-05-18T15:23:47.256Z,46.56
2019-05-18T15:26:15.676Z,46.55
2019-05-18T15:28:43.721Z,46.54
2019-05-18T15:31:11.783Z,46.52
2019-05-18T15:33:39.804Z,46.51
2019-05-18T15:36:07.819Z,46.49
2019-05-18T15:38:35.841Z,46.45
2019-05-18T15:41:03.878Z,46.44
2019-05-18T15:43:31.938Z,46.44
2019-05-18T15:46:00.144Z,46.42
2019-05-18T15:48:28.269Z,46.43
2019-05-18T15:50:59.223Z,46.42
2019-05-18T15:53:26.225Z,46.39
2019-05-18T15:56:05.382Z,46.38
2019-05-18T15:58:23.965Z,46.36
2019-05-18T16:00:52.047Z,46.34
2019-05-18T16:03:20.042Z,46.32
2019-05-18T16:05:48.096Z,46.30
2019-05-18T16:08:16.155Z,46.27
2019-05-18T16:10:44.180Z,46.23
2019-05-18T16:13:12.236Z,46.21
2019-05-18T16:15:40.317Z,46.19
2019-05-18T16:18:08.334Z,46.16
2019-05-18T16:20:36.328Z,46.13
2019-05-18T16:23:04.727Z,46.10
2019-05-18T16:25:32.926Z,46.05
2019-05-18T16:28:00.986Z,46.01
2019-05-18T16:30:29.191Z,45.98
2019-05-18T16:32:57.185Z,45.93
2019-05-18T16:35:25.241Z,45.90
2019-05-18T16:37:53.372Z,45.89
2019-05-18T16:40:21.402Z,45.84
2019-05-18T16:42:49.459Z,45.79
2019-05-18T16:45:17.492Z,45.84
2019-05-18T16:47:45.528Z,45.83
2019-05-18T16:50:13.585Z,45.86
2019-05-18T16:52:41.827Z,45.94
2019-05-18T16:55:09.889Z,47.66
2019-05-18T16:57:38.114Z,47.74
2019-05-18T17:00:06.164Z,48.08
2019-05-18T17:02:34.205Z,47.23
2019-05-18T17:05:02.347Z,47.38
2019-05-18T17:07:30.490Z,47.21
2019-05-18T17:09:58.545Z,47.08
2019-05-18T17:12:26.572Z,46.96
2019-05-18T17:14:54.610Z,46.85
2019-05-18T17:17:22.894Z,46.75
2019-05-18T17:19:50.919Z,46.70
2019-05-18T17:22:19.259Z,46.66
2019-05-18T17:24:47.344Z,46.60
2019-05-18T17:27:15.407Z,46.50
2019-05-18T17:29:43.669Z,46.40
2019-05-18T17:32:11.791Z,46.28
2019-05-18T17:34:39.895Z,46.21
2019-05-18T17:37:07.966Z,46.15
2019-05-18T17:39:36.004Z,46.07
2019-05-18T17:42:05.179Z,45.92
2019-05-18T17:44:33.465Z,45.91
2019-05-18T17:47:01.515Z,45.83
2019-05-18T17:49:29.705Z,45.81
2019-05-18T17:51:57.859Z,45.71
2019-05-18T17:54:26.091Z,45.64
2019-05-18T17:57:07.460Z,45.63
2019-05-18T17:59:23.929Z,45.57
2019-05-18T18:01:51.975Z,45.58
2019-05-18T18:04:20.032Z,45.47
2019-05-18T18:06:48.133Z,45.50
2019-05-18T18:09:16.193Z,45.48
2019-05-18T18:11:44.543Z,46.16
2019-05-18T18:14:12.650Z,46.69
2019-05-18T18:16:40.703Z,46.21
2019-05-18T18:19:08.743Z,46.07
2019-05-18T18:21:36.783Z,46.19
2019-05-18T18:24:04.806Z,46.30
2019-05-18T18:26:32.860Z,46.33
2019-05-18T18:29:04.043Z,46.50
2019-05-18T18:31:30.625Z,46.56
2019-05-18T18:33:58.625Z,46.58
2019-05-18T18:36:26.673Z,46.62
2019-05-18T18:38:54.695Z,46.85
2019-05-18T18:41:22.776Z,46.97
2019-05-18T18:43:50.867Z,46.93
2019-05-18T18:46:18.871Z,46.87
2019-05-18T18:48:46.944Z,46.93
2019-05-18T18:51:15.018Z,46.98
2019-05-18T18:53:43.036Z,46.85
2019-05-18T18:56:11.091Z,46.41
2019-05-18T18:58:39.317Z,46.26
2019-05-18T19:01:07.351Z,46.19
2019-05-18T19:03:35.423Z,46.15
2019-05-18T19:06:03.510Z,46.08
2019-05-18T19:08:31.526Z,46.04
2019-05-18T19:10:59.535Z,45.94
2019-05-18T19:13:27.735Z,45.91
2019-05-18T19:15:55.846Z,45.86
2019-05-18T19:18:23.865Z,46.05
2019-05-18T19:20:51.929Z,46.11
2019-05-18T19:23:19.944Z,46.18
2019-05-18T19:25:48.031Z,46.15
2019-05-18T19:28:16.083Z,46.06
2019-05-18T19:30:44.122Z,46.04
2019-05-18T19:33:12.824Z,46.07
2019-05-18T19:35:40.884Z,46.10
2019-05-18T19:38:08.916Z,46.25
2019-05-18T19:40:37.017Z,46.41
2019-05-18T19:43:05.152Z,46.51
2019-05-18T19:45:33.190Z,46.46
2019-05-18T19:48:01.239Z,46.49
2019-05-18T19:50:29.286Z,46.47
2019-05-18T19:52:57.542Z,46.34
2019-05-18T19:55:25.564Z,46.30
2019-05-18T19:58:07.791Z,46.33
2019-05-18T20:00:23.972Z,46.31
2019-05-18T20:02:52.048Z,46.29
2019-05-18T20:05:20.125Z,46.26
2019-05-18T20:07:48.114Z,46.26
2019-05-18T20:10:16.182Z,46.23
2019-05-18T20:12:44.222Z,46.23
2019-05-18T20:15:12.371Z,46.22
2019-05-18T20:17:40.778Z,46.26
2019-05-18T20:20:09.671Z,46.26
2019-05-18T20:22:37.768Z,46.24
2019-05-18T20:25:05.848Z,46.25
2019-05-18T20:27:33.931Z,46.22
2019-05-18T20:30:01.994Z,46.19
2019-05-18T20:32:30.022Z,46.24
2019-05-18T20:34:58.055Z,46.19
2019-05-18T20:37:26.061Z,46.23
2019-05-18T20:39:54.087Z,46.22
2019-05-18T20:42:22.189Z,46.23
2019-05-18T20:44:50.625Z,46.26
2019-05-18T20:47:18.895Z,46.29
2019-05-18T20:49:46.925Z,46.28
2019-05-18T20:52:14.977Z,46.36
2019-05-18T20:54:43.048Z,46.40
2019-05-18T20:57:11.095Z,46.41
2019-05-18T20:59:39.166Z,46.39
2019-05-18T21:02:07.220Z,46.40
2019-05-18T21:04:35.268Z,46.39
2019-05-18T21:07:03.308Z,46.39
2019-05-18T21:09:31.345Z,46.37
2019-05-18T21:11:59.421Z,46.48
2019-05-18T21:14:27.502Z,46.55
2019-05-18T21:16:55.541Z,46.54
2019-05-18T21:19:23.587Z,46.50
2019-05-18T21:21:51.710Z,46.52
2019-05-18T21:24:19.786Z,46.54
2019-05-18T21:26:47.914Z,46.57
2019-05-18T21:29:15.952Z,46.54
2019-05-18T21:31:43.970Z,46.57
2019-05-18T21:34:12.004Z,46.57
2019-05-18T21:36:40.075Z,46.57
2019-05-18T21:39:08.890Z,46.60
2019-05-18T21:41:36.895Z,46.91
2019-05-18T21:44:04.943Z,47.01
2019-05-18T21:46:33.459Z,47.00
2019-05-18T21:49:01.738Z,47.03
2019-05-18T21:51:29.868Z,47.05
2019-05-18T21:53:57.917Z,46.97
2019-05-18T21:56:25.925Z,46.98
2019-05-18T21:58:54.053Z,47.00
2019-05-18T22:01:22.139Z,47.02
2019-05-18T22:03:50.158Z,47.06
2019-05-18T22:06:18.252Z,47.11
2019-05-18T22:08:46.284Z,47.13
2019-05-18T22:11:14.300Z,47.09
2019-05-18T22:13:42.375Z,47.15
2019-05-18T22:16:10.447Z,47.15
2019-05-18T22:18:38.497Z,47.20
2019-05-18T22:21:06.560Z,47.15
2019-05-18T22:23:34.577Z,47.21
2019-05-18T22:26:02.627Z,47.19
2019-05-18T22:28:30.716Z,47.44
2019-05-18T22:30:58.942Z,47.59
2019-05-18T22:33:26.992Z,47.59
2019-05-18T22:35:55.391Z,47.62
2019-05-18T22:38:23.507Z,47.65
2019-05-18T22:40:51.595Z,47.74
2019-05-18T22:43:19.746Z,47.89
2019-05-18T22:45:47.849Z,48.02
2019-05-18T22:48:15.905Z,48.13
2019-05-18T22:50:43.896Z,48.05
2019-05-18T22:53:11.999Z,47.96
2019-05-18T22:55:40.077Z,48.01
2019-05-18T22:58:08.097Z,48.16
2019-05-18T23:00:36.133Z,48.09
2019-05-18T23:03:04.219Z,48.03
2019-05-18T23:05:32.231Z,47.97
2019-05-18T23:08:00.364Z,48.04
2019-05-18T23:10:28.398Z,47.99
2019-05-18T23:12:56.542Z,48.11
2019-05-18T23:15:24.553Z,48.07
2019-05-18T23:17:52.627Z,48.04
2019-05-18T23:20:20.692Z,48.07
2019-05-18T23:23:07.485Z,48.09
2019-05-18T23:25:35.546Z,48.08
2019-05-18T23:28:03.886Z,48.09
2019-05-18T23:30:31.934Z,48.21
2019-05-18T23:32:59.934Z,48.19
2019-05-18T23:35:27.991Z,48.24
2019-05-18T23:37:56.166Z,48.28
2019-05-18T23:40:24.226Z,48.33
2019-05-18T23:42:52.795Z,48.21
2019-05-18T23:45:22.041Z,48.19
2019-05-18T23:47:50.210Z,48.22
2019-05-18T23:50:18.204Z,48.18
2019-05-18T23:52:46.270Z,48.22
2019-05-18T23:55:14.270Z,48.31
2019-05-18T23:57:42.345Z,48.33
